Time;durP1;ratioP1;P1;durP2;ratioP2;P2;SDS_P1;SDS_P2;PMS_P1;PMS_P2;Temp;Humidity;BMP_temperature;BMP_pressure;BME280_temperature;BME280_humidity;BME280_pressure;Samples;Min_cycle;Max_cycle;Signal;HPM_P1;HPM_P2
2021/12/10 00:01:41;;;;;;;3.22;3.03;;;0.50;99.90;;;;;;5058409;28;20234;-76
2021/12/10 00:04:11;;;;;;;2.78;2.67;;;0.50;99.90;;;;;;5016702;28;20367;-77
2021/12/10 00:06:40;;;;;;;3.20;3.10;;;0.50;99.90;;;;;;5060193;28;20229;-77
2021/12/10 00:09:12;;;;;;;3.47;3.30;;;0.50;99.90;;;;;;5062816;28;20644;-76
2021/12/10 00:11:45;;;;;;;3.50;3.40;;;0.40;99.90;;;;;;5058821;28;20222;-76
2021/12/10 00:14:12;;;;;;;3.00;2.90;;;0.40;99.90;;;;;;5056490;28;20219;-76
2021/12/10 00:16:42;;;;;;;3.47;3.35;;;0.40;99.90;;;;;;5060083;28;22149;-76
2021/12/10 00:19:22;;;;;;;3.30;3.10;;;0.30;99.90;;;;;;5057941;28;20219;-76
2021/12/10 00:21:51;;;;;;;3.30;3.10;;;0.30;99.90;;;;;;5058400;28;20329;-76
2021/12/10 00:24:20;;;;;;;3.13;3.03;;;0.30;99.90;;;;;;5059002;28;20713;-76
2021/12/10 00:26:47;;;;;;;3.80;3.60;;;0.30;99.90;;;;;;5064816;28;20480;-78
2021/12/10 00:29:16;;;;;;;3.28;3.17;;;0.30;99.90;;;;;;5094033;22;20213;-70
2021/12/10 00:31:49;;;;;;;3.28;3.17;;;0.30;99.90;;;;;;5031296;28;20375;-72
2021/12/10 00:34:25;;;;;;;3.70;3.50;;;0.20;99.90;;;;;;5038487;28;20276;-71
2021/12/10 00:36:57;;;;;;;3.28;3.17;;;0.20;99.90;;;;;;5044386;28;20214;-69
2021/12/10 00:39:27;;;;;;;3.35;3.15;;;0.20;99.90;;;;;;5040417;28;20239;-70
2021/12/10 00:41:56;;;;;;;3.80;3.60;;;0.10;99.90;;;;;;5028613;28;20231;-70
2021/12/10 00:44:23;;;;;;;3.85;3.65;;;0.10;99.90;;;;;;5034204;28;20239;-70
2021/12/10 00:46:50;;;;;;;3.50;3.30;;;0.10;99.90;;;;;;5029061;28;20268;-70
2021/12/10 00:49:17;;;;;;;3.63;3.42;;;0.10;99.90;;;;;;5032266;28;20285;-70
2021/12/10 00:51:46;;;;;;;3.80;3.60;;;0.10;99.90;;;;;;5028273;28;20242;-69
2021/12/10 00:54:14;;;;;;;3.65;3.45;;;0.10;99.90;;;;;;5032720;28;20218;-70
2021/12/10 00:56:42;;;;;;;3.70;3.53;;;0.10;99.90;;;;;;5024590;28;20231;-70
2021/12/10 00:59:11;;;;;;;3.85;3.65;;;0.10;99.90;;;;;;5026405;28;20234;-70
2021/12/10 01:01:39;;;;;;;3.42;3.33;;;0.10;99.90;;;;;;5026229;28;20219;-70
2021/12/10 01:04:09;;;;;;;3.83;3.63;;;0.10;99.90;;;;;;5026252;28;20230;-70
2021/12/10 01:06:39;;;;;;;3.53;3.33;;;0.10;99.90;;;;;;5021865;28;20276;-70
2021/12/10 01:09:11;;;;;;;3.60;3.50;;;0.10;99.90;;;;;;5024890;28;20654;-70
2021/12/10 01:11:42;;;;;;;2.95;2.85;;;0.10;99.90;;;;;;5003566;28;20222;-70
2021/12/10 01:14:20;;;;;;;3.10;3.00;;;0.10;99.90;;;;;;5018124;28;20223;-70
2021/12/10 01:25:14;;;;;;;2.80;2.70;;;0.10;99.90;;;;;;5016487;28;20255;-69
2021/12/10 01:27:44;;;;;;;3.20;3.10;;;0.10;99.90;;;;;;5013901;28;20279;-70
2021/12/10 01:30:18;;;;;;;2.80;2.70;;;0.10;99.90;;;;;;5014544;28;20223;-70
2021/12/10 01:32:49;;;;;;;3.03;2.92;;;0.00;99.90;;;;;;5015176;28;20283;-70
2021/12/10 01:35:21;;;;;;;3.05;2.95;;;0.00;99.90;;;;;;5018369;28;20277;-70
2021/12/10 01:37:48;;;;;;;3.05;2.95;;;0.00;99.90;;;;;;5012355;28;20735;-71
2021/12/10 01:40:20;;;;;;;3.10;3.00;;;-0.10;99.90;;;;;;5013849;28;20231;-69
2021/12/10 01:42:50;;;;;;;2.90;2.80;;;-0.10;99.90;;;;;;5012663;28;20219;-70
2021/12/10 01:45:22;;;;;;;3.03;2.92;;;-0.10;99.90;;;;;;5012931;28;20220;-71
2021/12/10 01:47:56;;;;;;;3.30;3.20;;;-0.10;99.90;;;;;;5013643;28;20219;-70
2021/12/10 01:50:24;;;;;;;3.58;3.40;;;-0.10;99.90;;;;;;5018350;28;20227;-70
2021/12/10 01:52:54;;;;;;;3.28;3.08;;;-0.10;99.90;;;;;;5017081;28;21781;-70
2021/12/10 01:55:24;;;;;;;3.30;3.20;;;-0.10;99.90;;;;;;5020923;28;20780;-70
2021/12/10 01:57:53;;;;;;;3.58;3.47;;;-0.20;99.90;;;;;;5013662;28;20232;-70
2021/12/10 02:00:23;;;;;;;3.63;3.42;;;-0.20;99.90;;;;;;5013171;28;20285;-70
2021/12/10 02:02:50;;;;;;;3.67;3.50;;;-0.30;99.90;;;;;;5015319;28;20285;-70
2021/12/10 02:05:18;;;;;;;3.47;3.38;;;-0.30;99.90;;;;;;5021516;28;20520;-70
2021/12/10 02:07:46;;;;;;;3.20;3.10;;;-0.40;99.90;;;;;;5017191;28;21633;-67
2021/12/10 02:10:15;;;;;;;3.40;3.20;;;-0.40;99.90;;;;;;5019819;28;20232;-67
2021/12/10 02:12:45;;;;;;;3.63;3.53;;;-0.40;99.90;;;;;;5017165;28;20285;-70
2021/12/10 02:15:13;;;;;;;3.63;3.45;;;-0.40;99.90;;;;;;5016535;28;20227;-69
2021/12/10 02:17:43;;;;;;;3.78;3.55;;;-0.40;99.90;;;;;;5019395;28;20322;-71
2021/12/10 02:20:13;;;;;;;3.65;3.45;;;-0.40;99.90;;;;;;5031270;28;20223;-70
2021/12/10 02:22:43;;;;;;;3.30;3.20;;;-0.40;99.90;;;;;;5025223;28;20232;-69
2021/12/10 02:25:57;;;;;;;3.30;3.13;;;-0.40;99.90;;;;;;5022290;28;20958;-70
2021/12/10 02:28:24;;;;;;;3.08;2.92;;;-0.50;99.90;;;;;;5016199;28;21691;-69
2021/12/10 02:30:51;;;;;;;3.40;3.20;;;-0.50;99.90;;;;;;5016435;28;20231;-69
2021/12/10 02:33:18;;;;;;;3.13;3.03;;;-0.50;99.90;;;;;;5017264;28;20227;-69
2021/12/10 02:35:45;;;;;;;3.47;3.33;;;-0.50;99.90;;;;;;5016607;28;20223;-69
2021/12/10 02:38:16;;;;;;;3.42;3.25;;;-0.50;99.90;;;;;;5017500;28;20226;-69
2021/12/10 02:40:45;;;;;;;3.38;3.28;;;-0.50;99.90;;;;;;5015721;28;20227;-69
2021/12/10 02:43:16;;;;;;;3.25;3.15;;;-0.60;99.90;;;;;;5016425;28;20219;-69
2021/12/10 02:45:48;;;;;;;3.47;3.38;;;-0.60;99.90;;;;;;5014923;28;20227;-72
2021/12/10 02:48:15;;;;;;;3.55;3.40;;;-0.60;99.90;;;;;;5017521;28;20849;-70
2021/12/10 02:50:44;;;;;;;3.60;3.50;;;-0.60;99.90;;;;;;5019358;28;20602;-69
2021/12/10 02:53:15;;;;;;;2.75;2.65;;;-0.60;99.90;;;;;;5017687;28;20229;-69
2021/12/10 02:55:42;;;;;;;3.72;3.50;;;-0.70;99.90;;;;;;5021927;28;21028;-69
2021/12/10 02:58:14;;;;;;;3.30;3.13;;;-0.70;99.90;;;;;;5015550;28;20645;-69
2021/12/10 03:00:45;;;;;;;3.38;3.28;;;-0.70;99.90;;;;;;5015613;28;20237;-71
2021/12/10 03:03:12;;;;;;;3.42;3.25;;;-0.70;99.90;;;;;;5015727;28;20235;-69
2021/12/10 03:05:40;;;;;;;3.13;3.03;;;-0.70;99.90;;;;;;5028659;28;20222;-69
2021/12/10 03:08:07;;;;;;;3.53;3.40;;;-0.70;99.90;;;;;;5019875;28;20239;-69
2021/12/10 03:10:36;;;;;;;3.40;3.30;;;-0.80;99.90;;;;;;5016372;28;20277;-70
2021/12/10 03:13:04;;;;;;;3.40;3.30;;;-0.90;99.90;;;;;;5019779;28;20655;-69
2021/12/10 03:15:34;;;;;;;3.10;3.00;;;-0.90;99.90;;;;;;5016018;28;20234;-69
2021/12/10 03:18:02;;;;;;;3.17;3.08;;;-0.80;99.90;;;;;;5017797;28;20227;-69
2021/12/10 03:20:31;;;;;;;3.13;3.03;;;-0.80;99.90;;;;;;5017328;28;20231;-69
2021/12/10 03:23:00;;;;;;;3.70;3.50;;;-0.90;99.90;;;;;;5017401;28;20231;-69
2021/12/10 03:25:28;;;;;;;3.55;3.45;;;-0.90;99.90;;;;;;5018909;28;20295;-69
2021/12/10 03:27:57;;;;;;;3.63;3.42;;;-0.90;99.90;;;;;;5017003;28;20227;-69
2021/12/10 03:30:28;;;;;;;3.35;3.25;;;-0.90;99.90;;;;;;5015101;28;20309;-69
2021/12/10 03:32:56;;;;;;;3.20;3.10;;;-0.90;99.90;;;;;;5019377;28;20556;-69
2021/12/10 03:35:28;;;;;;;3.30;3.20;;;-0.90;99.90;;;;;;5015314;28;20227;-69
2021/12/10 03:37:55;;;;;;;3.40;3.30;;;-1.00;99.90;;;;;;5015031;28;21060;-69
2021/12/10 03:40:23;;;;;;;3.35;3.25;;;-0.90;99.90;;;;;;5015294;28;20231;-69
2021/12/10 03:42:57;;;;;;;3.20;3.10;;;-0.90;99.90;;;;;;5015217;28;20239;-69
2021/12/10 03:45:28;;;;;;;3.33;3.22;;;-0.90;99.90;;;;;;5017913;28;20226;-69
2021/12/10 03:47:55;;;;;;;3.40;3.30;;;-0.90;99.90;;;;;;5017658;28;20228;-69
2021/12/10 03:50:26;;;;;;;3.17;3.08;;;-1.00;99.90;;;;;;5016282;28;20783;-69
2021/12/10 03:52:53;;;;;;;2.95;2.85;;;-1.00;99.90;;;;;;5015571;28;20293;-69
2021/12/10 03:55:21;;;;;;;3.50;3.30;;;-1.00;99.90;;;;;;5022110;28;20231;-69
2021/12/10 03:57:50;;;;;;;3.30;3.13;;;-1.00;99.90;;;;;;5014704;28;20598;-69
2021/12/10 04:00:19;;;;;;;3.17;3.08;;;-1.00;99.90;;;;;;5015338;28;20285;-69
2021/12/10 04:02:48;;;;;;;3.63;3.45;;;-1.00;99.90;;;;;;5014158;28;20289;-69
2021/12/10 04:05:15;;;;;;;3.55;3.45;;;-1.00;99.90;;;;;;5026061;28;20234;-69
2021/12/10 04:07:43;;;;;;;3.40;3.30;;;-1.00;99.90;;;;;;5020850;28;20223;-69
2021/12/10 04:10:13;;;;;;;3.30;3.20;;;-1.00;99.90;;;;;;5015728;28;20315;-69
2021/12/10 04:12:40;;;;;;;3.60;3.50;;;-1.00;99.90;;;;;;5015454;28;20231;-68
2021/12/10 04:15:09;;;;;;;3.65;3.50;;;-1.00;99.90;;;;;;5015289;28;20277;-69
2021/12/10 04:17:38;;;;;;;3.55;3.45;;;-1.10;99.90;;;;;;5018606;28;20231;-69
2021/12/10 04:20:09;;;;;;;3.05;2.95;;;-1.10;99.90;;;;;;5021490;28;20236;-69
2021/12/10 04:22:36;;;;;;;4.10;3.90;;;-1.10;99.90;;;;;;5015191;28;20227;-69
2021/12/10 04:25:07;;;;;;;3.58;3.38;;;-1.10;99.90;;;;;;5019757;28;20807;-69
2021/12/10 04:27:34;;;;;;;3.83;3.63;;;-1.20;99.90;;;;;;5016058;28;20726;-69
2021/12/10 04:30:01;;;;;;;3.40;3.20;;;-1.10;99.90;;;;;;5015863;28;20235;-69
2021/12/10 04:32:30;;;;;;;3.17;3.08;;;-1.20;99.90;;;;;;5015359;28;20227;-69
2021/12/10 04:34:57;;;;;;;3.88;3.78;;;-1.10;99.90;;;;;;5014519;28;20227;-69
2021/12/10 04:37:25;;;;;;;3.85;3.65;;;-1.20;99.90;;;;;;5014649;28;20250;-69
2021/12/10 04:39:52;;;;;;;3.28;3.17;;;-1.20;99.90;;;;;;5015499;28;20229;-69
2021/12/10 04:42:22;;;;;;;4.18;3.97;;;-1.20;99.90;;;;;;5018132;28;20289;-69
2021/12/10 04:44:53;;;;;;;5.93;5.43;;;-1.20;99.90;;;;;;5015520;28;20332;-69
2021/12/10 04:47:21;;;;;;;5.50;5.10;;;-1.20;99.90;;;;;;5014936;28;20235;-69
2021/12/10 04:49:48;;;;;;;5.00;4.70;;;-1.30;99.90;;;;;;5013259;28;20357;-69
2021/12/10 04:52:15;;;;;;;5.15;4.85;;;-1.30;99.90;;;;;;5018517;28;20227;-70
2021/12/10 04:54:44;;;;;;;4.53;4.32;;;-1.40;99.90;;;;;;5016660;28;20223;-69
2021/12/10 04:57:11;;;;;;;4.43;4.20;;;-1.30;99.90;;;;;;5018914;28;20544;-69
2021/12/10 04:59:39;;;;;;;4.30;4.10;;;-1.30;99.90;;;;;;5013169;28;20281;-69
2021/12/10 05:02:09;;;;;;;3.80;3.60;;;-1.40;99.90;;;;;;5012619;28;20226;-69
2021/12/10 05:04:37;;;;;;;3.45;3.25;;;-1.40;99.90;;;;;;5010116;28;20234;-69
2021/12/10 05:07:05;;;;;;;3.65;3.47;;;-1.40;99.90;;;;;;5012956;28;20614;-70
2021/12/10 05:09:33;;;;;;;3.95;3.75;;;-1.40;99.90;;;;;;5013822;28;22917;-70
2021/12/10 05:12:02;;;;;;;3.67;3.47;;;-1.40;99.90;;;;;;5016365;28;20258;-68
2021/12/10 05:14:31;;;;;;;3.50;3.40;;;-1.40;99.90;;;;;;5013278;28;20226;-69
2021/12/10 05:17:03;;;;;;;3.60;3.50;;;-1.40;99.90;;;;;;5014782;28;20281;-69
2021/12/10 05:19:31;;;;;;;3.10;3.00;;;-1.40;99.90;;;;;;5013099;28;20308;-69
2021/12/10 05:22:00;;;;;;;3.15;3.05;;;-1.40;99.90;;;;;;5013879;28;20227;-69
2021/12/10 05:24:27;;;;;;;3.60;3.40;;;-1.40;99.90;;;;;;5013255;28;20741;-69
2021/12/10 05:26:55;;;;;;;3.72;3.53;;;-1.40;99.90;;;;;;5016033;28;20276;-69
2021/12/10 05:29:24;;;;;;;3.80;3.60;;;-1.40;99.90;;;;;;5012492;28;20232;-69
2021/12/10 05:31:52;;;;;;;3.75;3.55;;;-1.40;99.90;;;;;;5013789;28;20227;-69
2021/12/10 05:34:19;;;;;;;3.10;3.00;;;-1.40;99.90;;;;;;5013389;28;20239;-69
2021/12/10 05:36:46;;;;;;;3.60;3.45;;;-1.40;99.90;;;;;;5014476;28;20231;-69
2021/12/10 05:39:15;;;;;;;3.28;3.17;;;-1.40;99.90;;;;;;5016756;28;20717;-69
2021/12/10 05:41:43;;;;;;;3.80;3.65;;;-1.40;99.90;;;;;;5018877;28;20228;-69
2021/12/10 05:44:10;;;;;;;3.88;3.67;;;-1.40;99.90;;;;;;5019840;28;20615;-69
2021/12/10 05:46:39;;;;;;;3.88;3.67;;;-1.40;99.90;;;;;;5026614;28;20237;-70
2021/12/10 05:49:07;;;;;;;4.10;3.90;;;-1.50;99.90;;;;;;5037600;28;20224;-70
2021/12/10 05:51:35;;;;;;;3.70;3.50;;;-1.50;99.90;;;;;;5036161;28;20254;-70
2021/12/10 05:54:03;;;;;;;3.83;3.70;;;-1.60;99.90;;;;;;5020415;28;20235;-69
2021/12/10 05:56:31;;;;;;;4.05;3.85;;;-1.60;99.90;;;;;;5020718;28;20226;-69
2021/12/10 05:58:59;;;;;;;3.40;3.30;;;-1.60;99.90;;;;;;5022479;28;20329;-69
2021/12/10 06:01:26;;;;;;;3.70;3.55;;;-1.60;99.90;;;;;;5019237;28;20280;-69
2021/12/10 06:03:55;;;;;;;4.15;3.88;;;-1.60;99.90;;;;;;5016693;28;20227;-70
2021/12/10 06:06:24;;;;;;;3.05;2.92;;;-1.60;99.90;;;;;;5027172;28;20228;-69
2021/12/10 06:08:52;;;;;;;3.90;3.72;;;-1.60;99.90;;;;;;5025578;28;20686;-70
2021/12/10 06:11:20;;;;;;;3.60;3.40;;;-1.60;99.90;;;;;;5020994;28;20701;-69
2021/12/10 06:13:47;;;;;;;3.83;3.65;;;-1.60;99.90;;;;;;5017130;28;20240;-70
2021/12/10 06:16:15;;;;;;;3.25;3.15;;;-1.60;99.90;;;;;;5018205;28;20619;-70
2021/12/10 06:18:42;;;;;;;3.47;3.38;;;-1.60;99.90;;;;;;5022098;28;20285;-69
2021/12/10 06:21:11;;;;;;;3.67;3.58;;;-1.60;99.90;;;;;;5015592;28;20223;-70
2021/12/10 06:23:38;;;;;;;3.40;3.30;;;-1.70;99.90;;;;;;5023387;28;21323;-70
2021/12/10 06:26:06;;;;;;;3.75;3.55;;;-1.70;99.90;;;;;;5017008;28;20309;-69
2021/12/10 06:28:34;;;;;;;3.35;3.25;;;-1.70;99.90;;;;;;5016599;28;20297;-69
2021/12/10 06:31:01;;;;;;;3.60;3.50;;;-1.60;99.90;;;;;;5056705;22;20223;-77
2021/12/10 06:33:29;;;;;;;3.55;3.45;;;-1.60;99.90;;;;;;5039689;28;20877;-79
2021/12/10 06:36:00;;;;;;;3.25;3.15;;;-1.60;99.90;;;;;;5039420;28;20226;-78
2021/12/10 06:38:28;;;;;;;3.47;3.38;;;-1.60;99.90;;;;;;5036843;28;20778;-77
2021/12/10 06:40:56;;;;;;;3.33;3.22;;;-1.70;99.90;;;;;;5039568;28;20613;-77
2021/12/10 06:43:23;;;;;;;4.10;3.90;;;-1.70;99.90;;;;;;5045996;28;20238;-78
2021/12/10 06:45:52;;;;;;;3.28;3.17;;;-1.70;99.90;;;;;;5055312;28;20223;-75
2021/12/10 06:48:21;;;;;;;3.70;3.53;;;-1.80;99.90;;;;;;5040399;28;20309;-76
2021/12/10 06:50:51;;;;;;;3.83;3.72;;;-1.80;99.90;;;;;;5049052;28;20469;-77
2021/12/10 06:53:20;;;;;;;4.07;3.88;;;-1.70;99.90;;;;;;5055587;28;20230;-77
2021/12/10 06:55:49;;;;;;;3.83;3.63;;;-1.70;99.90;;;;;;5050439;28;20226;-78
2021/12/10 06:58:17;;;;;;;3.67;3.58;;;-1.70;99.90;;;;;;5048495;28;20229;-78
2021/12/10 07:00:48;;;;;;;4.20;4.00;;;-1.70;99.90;;;;;;5038924;28;20235;-77
2021/12/10 07:03:18;;;;;;;4.30;4.10;;;-1.70;99.90;;;;;;5036090;28;20724;-77
2021/12/10 07:05:46;;;;;;;4.13;3.92;;;-1.60;99.90;;;;;;5039135;28;20291;-75
2021/12/10 07:08:13;;;;;;;4.03;3.88;;;-1.60;99.90;;;;;;5038587;28;20235;-75
2021/12/10 07:10:41;;;;;;;4.00;3.80;;;-1.60;99.90;;;;;;5036348;28;20230;-74
2021/12/10 07:13:11;;;;;;;3.92;3.72;;;-1.60;99.90;;;;;;5043953;28;20603;-75
2021/12/10 07:15:42;;;;;;;4.00;3.80;;;-1.60;99.90;;;;;;5039850;28;20222;-77
2021/12/10 07:18:10;;;;;;;3.90;3.70;;;-1.50;99.90;;;;;;5040313;28;20744;-76
2021/12/10 07:20:38;;;;;;;3.55;3.45;;;-1.50;99.90;;;;;;5038065;28;20264;-79
2021/12/10 07:23:05;;;;;;;3.72;3.53;;;-1.50;99.90;;;;;;5041349;28;20236;-77
2021/12/10 07:25:33;;;;;;;3.97;3.78;;;-1.50;99.90;;;;;;5034853;28;21399;-76
2021/12/10 07:28:00;;;;;;;3.60;3.40;;;-1.40;99.90;;;;;;5030080;28;20772;-77
2021/12/10 07:30:29;;;;;;;4.30;4.10;;;-1.40;99.90;;;;;;5026570;28;21074;-76
2021/12/10 07:32:57;;;;;;;3.92;3.72;;;-1.30;99.90;;;;;;5031321;28;20705;-76
2021/12/10 07:35:24;;;;;;;3.10;2.90;;;-1.20;99.90;;;;;;5030222;28;20237;-76
2021/12/10 07:37:52;;;;;;;3.88;3.67;;;-1.20;99.90;;;;;;5032634;28;20747;-77
2021/12/10 07:40:23;;;;;;;3.85;3.65;;;-1.10;99.90;;;;;;5042756;28;20584;-76
2021/12/10 07:42:50;;;;;;;3.50;3.40;;;-1.10;99.90;;;;;;5027686;28;20234;-78
2021/12/10 07:45:18;;;;;;;4.03;3.83;;;-1.00;99.90;;;;;;5031815;28;20278;-75
2021/12/10 07:47:50;;;;;;;5.10;4.80;;;-1.00;99.90;;;;;;5028688;28;20222;-75
2021/12/10 07:50:20;;;;;;;6.30;5.80;;;-1.00;99.90;;;;;;5029979;28;20231;-76
2021/12/10 07:52:50;;;;;;;11.00;9.02;;;-0.90;99.90;;;;;;5027929;28;20320;-75
2021/12/10 07:55:17;;;;;;;7.28;6.57;;;-0.90;99.90;;;;;;5029673;28;20578;-76
2021/12/10 07:57:45;;;;;;;6.65;6.05;;;-0.90;99.90;;;;;;5029035;28;20230;-75
2021/12/10 08:00:16;;;;;;;5.50;5.10;;;-1.00;99.90;;;;;;5029669;28;20241;-75
2021/12/10 08:02:44;;;;;;;5.75;5.25;;;-0.90;99.90;;;;;;5026658;28;20307;-77
2021/12/10 08:05:14;;;;;;;5.93;5.43;;;-0.90;99.90;;;;;;5029159;28;20230;-77
2021/12/10 08:07:41;;;;;;;5.53;5.13;;;-0.80;99.90;;;;;;5029796;28;21315;-74
2021/12/10 08:10:10;;;;;;;6.07;5.57;;;-0.80;99.90;;;;;;5010459;28;20302;-75
2021/12/10 08:12:38;;;;;;;6.72;6.20;;;-0.70;99.90;;;;;;5029095;28;20226;-76
2021/12/10 08:15:06;;;;;;;5.70;5.30;;;-0.70;99.90;;;;;;5029471;28;20238;-76
2021/12/10 08:17:34;;;;;;;5.22;4.72;;;-0.70;99.90;;;;;;5029438;28;20644;-75
2021/12/10 08:20:03;;;;;;;5.00;4.70;;;-0.60;99.90;;;;;;5030464;28;20238;-75
2021/12/10 08:22:32;;;;;;;4.82;4.53;;;-0.40;99.90;;;;;;5031498;28;21829;-77
2021/12/10 08:24:59;;;;;;;5.18;4.78;;;-0.20;99.90;;;;;;5032036;28;20886;-76
2021/12/10 08:27:26;;;;;;;5.47;5.07;;;0.00;99.90;;;;;;5030179;28;20234;-76
2021/12/10 08:29:53;;;;;;;5.88;5.47;;;0.10;99.90;;;;;;5027729;28;20238;-74
2021/12/10 08:32:21;;;;;;;5.38;4.97;;;0.10;99.90;;;;;;5043175;28;20298;-77
2021/12/10 08:34:49;;;;;;;6.00;5.60;;;0.10;99.90;;;;;;5033148;28;20242;-76
2021/12/10 08:37:17;;;;;;;6.45;5.95;;;0.00;99.90;;;;;;5027666;28;20237;-77
2021/12/10 08:39:46;;;;;;;6.10;5.60;;;0.00;99.90;;;;;;5028482;28;20261;-78
2021/12/10 08:42:15;;;;;;;8.13;7.32;;;-0.10;99.90;;;;;;5029920;28;20231;-80
2021/12/10 08:44:43;;;;;;;7.00;6.50;;;-0.10;99.90;;;;;;5031519;28;20273;-75
2021/12/10 08:47:12;;;;;;;6.53;6.05;;;-0.20;99.90;;;;;;5027112;28;20232;-76
2021/12/10 08:49:40;;;;;;;6.13;5.63;;;-0.20;99.90;;;;;;5029954;28;20245;-77
2021/12/10 08:52:09;;;;;;;6.20;5.70;;;-0.10;99.90;;;;;;5028373;28;20234;-76
2021/12/10 08:54:37;;;;;;;6.47;5.97;;;0.00;99.90;;;;;;5030641;28;20241;-76
2021/12/10 08:57:08;;;;;;;6.10;5.63;;;0.10;99.90;;;;;;5030420;28;20219;-74
2021/12/10 08:59:38;;;;;;;6.45;5.95;;;0.10;99.90;;;;;;5028065;28;21001;-75
2021/12/10 09:02:08;;;;;;;5.53;5.13;;;0.00;99.90;;;;;;5025110;28;20234;-75
2021/12/10 09:04:36;;;;;;;6.38;5.88;;;-0.10;99.90;;;;;;5029659;28;20230;-75
2021/12/10 09:07:06;;;;;;;6.18;5.75;;;-0.20;99.90;;;;;;5032610;28;22908;-75
2021/12/10 09:09:35;;;;;;;6.63;6.05;;;-0.30;99.90;;;;;;5026414;28;20231;-75
2021/12/10 09:12:07;;;;;;;6.28;5.78;;;-0.30;99.90;;;;;;5026736;28;20226;-76
2021/12/10 09:14:40;;;;;;;6.18;5.57;;;-0.30;99.90;;;;;;5029708;28;20285;-77
2021/12/10 09:17:09;;;;;;;5.78;5.38;;;-0.20;99.90;;;;;;5033863;28;20293;-74
2021/12/10 09:19:36;;;;;;;5.95;5.40;;;-0.10;99.90;;;;;;5032627;28;20433;-76
2021/12/10 09:22:05;;;;;;;6.10;5.60;;;-0.10;99.90;;;;;;5032432;28;20230;-75
2021/12/10 09:24:32;;;;;;;6.43;5.93;;;0.00;99.90;;;;;;5031083;28;20234;-73
2021/12/10 09:27:01;;;;;;;5.80;5.30;;;0.00;99.90;;;;;;5049772;28;20806;-75
2021/12/10 09:29:35;;;;;;;6.10;5.60;;;0.10;99.90;;;;;;5033123;28;20693;-75
2021/12/10 09:32:03;;;;;;;5.18;4.82;;;0.20;99.90;;;;;;5034739;28;20244;-74
2021/12/10 09:34:30;;;;;;;5.57;5.18;;;0.20;99.90;;;;;;5035673;28;20792;-76
2021/12/10 09:36:58;;;;;;;5.57;5.28;;;0.30;99.90;;;;;;5031440;28;20223;-76
2021/12/10 09:39:26;;;;;;;5.03;4.68;;;0.40;99.90;;;;;;5032889;28;21411;-77
2021/12/10 09:41:54;;;;;;;6.05;5.45;;;0.40;99.90;;;;;;5032910;28;20688;-76
2021/12/10 09:44:22;;;;;;;7.30;6.68;;;0.50;99.90;;;;;;5034662;28;20226;-75
2021/12/10 09:46:53;;;;;;;8.15;7.40;;;0.60;99.90;;;;;;5030248;28;20226;-75
2021/12/10 09:49:23;;;;;;;16.13;11.05;;;0.60;99.90;;;;;;5030457;28;20227;-76
2021/12/10 09:51:54;;;;;;;15.25;9.82;;;0.70;99.90;;;;;;5029884;28;20425;-75
2021/12/10 09:54:24;;;;;;;10.80;7.70;;;0.70;99.90;;;;;;5036994;28;20238;-76
2021/12/10 09:56:59;;;;;;;9.20;7.35;;;0.80;99.90;;;;;;5031726;28;20624;-75
2021/12/10 09:59:26;;;;;;;8.70;7.25;;;0.90;99.90;;;;;;5031429;28;20240;-76
2021/12/10 10:01:57;;;;;;;9.50;7.47;;;0.90;99.90;;;;;;5029945;28;20725;-76
2021/12/10 10:04:26;;;;;;;8.68;7.35;;;0.90;99.90;;;;;;5031277;28;20610;-75
2021/12/10 10:06:56;;;;;;;7.15;6.50;;;0.80;99.90;;;;;;5033508;28;20783;-75
2021/12/10 10:09:24;;;;;;;7.68;6.85;;;0.80;99.90;;;;;;5032999;28;20235;-75
2021/12/10 10:11:56;;;;;;;6.38;5.78;;;0.70;99.90;;;;;;5030386;28;20231;-75
2021/12/10 10:14:24;;;;;;;6.68;6.00;;;0.80;99.90;;;;;;5030312;28;20721;-75
2021/12/10 10:16:52;;;;;;;7.88;6.95;;;0.90;99.90;;;;;;5031934;28;20254;-78
2021/12/10 10:19:20;;;;;;;8.82;7.35;;;1.00;99.90;;;;;;5036014;28;20327;-77
2021/12/10 10:21:51;;;;;;;7.03;6.38;;;1.00;99.90;;;;;;5047345;28;20227;-75
2021/12/10 10:24:19;;;;;;;6.13;5.63;;;1.00;99.90;;;;;;5029277;28;20223;-76
2021/12/10 10:26:52;;;;;;;6.28;5.75;;;1.00;99.90;;;;;;5031474;28;20542;-76
2021/12/10 10:29:22;;;;;;;6.00;5.50;;;0.90;99.90;;;;;;5030382;28;20264;-77
2021/12/10 10:31:53;;;;;;;6.10;5.70;;;0.80;99.90;;;;;;5037345;28;20234;-77
2021/12/10 10:34:25;;;;;;;5.72;5.22;;;0.90;99.90;;;;;;5030831;28;20588;-77
2021/12/10 10:36:52;;;;;;;5.60;4.97;;;0.90;99.90;;;;;;5034852;28;20223;-75
2021/12/10 10:39:23;;;;;;;6.25;5.70;;;0.90;99.90;;;;;;5035141;28;20230;-76
2021/12/10 10:41:53;;;;;;;6.28;5.70;;;1.00;99.90;;;;;;5036803;28;20611;-74
2021/12/10 10:44:21;;;;;;;6.43;5.82;;;1.00;99.90;;;;;;5043783;28;20250;-76
2021/12/10 10:46:50;;;;;;;6.05;5.47;;;1.00;99.90;;;;;;5037588;28;20222;-75
2021/12/10 10:49:36;;;;;;;6.30;5.82;;;1.00;99.90;;;;;;5041955;28;20281;-75
2021/12/10 10:52:24;;;;;;;6.53;5.95;;;1.10;99.90;;;;;;5041023;28;20299;-75
2021/12/10 10:54:54;;;;;;;6.65;6.05;;;1.20;99.90;;;;;;5040805;28;20237;-76
2021/12/10 11:00:52;;;;;;;7.75;7.05;;;1.50;99.90;;;;;;5095723;27;20308;-77
2021/12/10 11:03:23;;;;;;;7.05;6.45;;;1.60;99.90;;;;;;5083852;27;20221;-75
2021/12/10 11:05:52;;;;;;;7.05;6.45;;;1.60;99.90;;;;;;5082818;27;20240;-75
2021/12/10 11:08:29;;;;;;;6.85;6.25;;;1.60;99.90;;;;;;5084310;28;20536;-75
2021/12/10 11:11:05;;;;;;;6.18;5.68;;;1.50;99.90;;;;;;5080210;28;20287;-75
2021/12/10 11:13:32;;;;;;;6.68;6.05;;;1.50;99.90;;;;;;5091411;27;20243;-76
2021/12/10 11:16:04;;;;;;;6.90;6.15;;;1.50;99.90;;;;;;5093434;27;20245;-76
2021/12/10 11:18:49;;;;;;;6.80;6.30;;;1.40;99.90;;;;;;5062318;28;20229;-74
2021/12/10 11:21:19;;;;;;;6.75;6.15;;;1.50;99.90;;;;;;5067961;27;20236;-75
2021/12/10 11:23:46;;;;;;;5.90;5.47;;;1.60;99.90;;;;;;5075194;27;20241;-76
2021/12/10 11:26:13;;;;;;;6.32;5.75;;;1.50;99.90;;;;;;5080547;27;20220;-75
2021/12/10 11:28:42;;;;;;;6.90;6.22;;;1.50;99.90;;;;;;5089702;27;20228;-77
2021/12/10 11:31:14;;;;;;;6.57;5.97;;;1.50;99.90;;;;;;5086246;27;20303;-76
2021/12/10 11:33:48;;;;;;;6.32;5.82;;;1.50;99.90;;;;;;5086357;28;20221;-76
2021/12/10 11:36:22;;;;;;;6.85;6.30;;;1.60;99.90;;;;;;5089742;27;20221;-75
2021/12/10 11:38:54;;;;;;;10.18;8.10;;;1.70;99.90;;;;;;5087015;27;20232;-77
2021/12/10 11:41:26;;;;;;;12.75;8.73;;;1.80;99.90;;;;;;5088482;27;20228;-76
2021/12/10 11:44:07;;;;;;;8.70;7.78;;;1.80;99.90;;;;;;5089603;27;20304;-75
2021/12/10 11:46:51;;;;;;;9.82;7.03;;;1.90;99.90;;;;;;5087537;27;20310;-75
2021/12/10 11:49:23;;;;;;;7.38;6.68;;;1.90;99.90;;;;;;5084931;27;20620;-78
2021/12/10 11:51:56;;;;;;;8.10;7.05;;;2.00;99.90;;;;;;5092536;27;20244;-77
2021/12/10 11:54:28;;;;;;;7.80;6.95;;;2.10;99.90;;;;;;5097287;27;20290;-78
2021/12/10 11:56:59;;;;;;;8.13;7.30;;;2.30;99.90;;;;;;5093674;27;20665;-77
2021/12/10 11:59:28;;;;;;;8.57;7.63;;;2.50;99.90;;;;;;5084480;27;20271;-79
2021/12/10 12:02:01;;;;;;;8.85;7.95;;;2.60;99.90;;;;;;5081555;27;20677;-77
2021/12/10 12:04:33;;;;;;;8.05;7.35;;;2.70;99.90;;;;;;5088958;27;20238;-80
2021/12/10 12:07:25;;;;;;;10.10;7.38;;;2.80;99.90;;;;;;5085541;27;20221;-79
2021/12/10 12:09:55;;;;;;;10.07;7.40;;;2.90;99.90;;;;;;5100759;28;20220;-77
2021/12/10 12:12:24;;;;;;;8.20;7.40;;;2.80;99.90;;;;;;5074927;27;20628;-77
2021/12/10 12:14:53;;;;;;;8.50;7.10;;;2.80;99.90;;;;;;5074204;28;20229;-79
2021/12/10 12:17:40;;;;;;;8.15;7.30;;;2.90;99.90;;;;;;5073013;27;20225;-78
2021/12/10 12:20:33;;;;;;;7.53;6.82;;;3.00;99.90;;;;;;5075980;28;20279;-75
2021/12/10 12:25:52;;;;;;;6.50;6.00;;;2.90;99.90;;;;;;5069687;28;20639;-76
2021/12/10 12:28:24;;;;;;;6.68;6.07;;;3.00;99.90;;;;;;5071133;28;20217;-79
2021/12/10 12:31:02;;;;;;;6.35;5.22;;;3.10;99.90;;;;;;5082362;27;20242;-79
2021/12/10 12:33:33;;;;;;;6.95;6.25;;;3.00;99.90;;;;;;5075536;28;20213;-77
2021/12/10 12:36:01;;;;;;;6.10;5.60;;;2.80;99.90;;;;;;5082429;27;20217;-77
2021/12/10 12:38:30;;;;;;;5.93;5.47;;;2.80;99.90;;;;;;5079741;28;20819;-78
2021/12/10 12:41:12;;;;;;;6.38;5.88;;;2.90;99.90;;;;;;5077422;28;20304;-77
2021/12/10 12:43:40;;;;;;;6.10;5.70;;;2.90;99.90;;;;;;5080446;28;20447;-76
2021/12/10 12:46:10;;;;;;;6.88;6.30;;;2.80;99.90;;;;;;5077518;28;20643;-75
2021/12/10 12:48:55;;;;;;;6.47;5.97;;;2.80;99.90;;;;;;5075832;28;20237;-78
2021/12/10 12:51:22;;;;;;;6.93;6.32;;;2.60;99.90;;;;;;5069839;28;20221;-78
2021/12/10 12:53:50;;;;;;;6.30;5.75;;;2.40;99.90;;;;;;5073392;28;20879;-75
2021/12/10 12:56:18;;;;;;;7.22;6.57;;;2.20;99.90;;;;;;5074052;28;20229;-75
2021/12/10 12:58:49;;;;;;;6.78;6.18;;;2.00;99.90;;;;;;5076625;28;20217;-78
2021/12/10 13:01:21;;;;;;;6.68;6.07;;;1.80;99.90;;;;;;5075679;28;20779;-80
2021/12/10 13:03:52;;;;;;;6.65;6.05;;;1.60;99.90;;;;;;5092758;27;20221;-76
2021/12/10 13:06:24;;;;;;;6.78;6.18;;;1.40;99.90;;;;;;5074299;27;20229;-78
2021/12/10 13:09:04;;;;;;;6.90;6.30;;;1.30;99.90;;;;;;5076357;28;20225;-78
2021/12/10 13:11:47;;;;;;;7.25;6.55;;;1.30;99.90;;;;;;5082063;28;20990;-77
2021/12/10 13:14:17;;;;;;;6.60;6.00;;;1.30;99.90;;;;;;5073340;28;20755;-78
2021/12/10 13:16:46;;;;;;;6.45;5.95;;;1.60;99.90;;;;;;5077764;28;20710;-79
2021/12/10 13:19:17;;;;;;;8.00;7.30;;;1.70;99.90;;;;;;5077813;28;20220;-78